Time;durP1;ratioP1;P1;durP2;ratioP2;P2;SDS_P1;SDS_P2;PMS_P1;PMS_P2;Temp;Humidity;BMP_temperature;BMP_pressure;BME280_temperature;BME280_humidity;BME280_pressure;Samples;Min_cycle;Max_cycle;Signal;HPM_P1;HPM_P2
2022/12/01 00:01:13;;;;;;;53.83;28.10;;;;;;;10.81;60.60;102579.53;4916222;29;20084;-65
2022/12/01 00:03:39;;;;;;;52.15;28.13;;;;;;;10.80;60.75;102580.47;4901013;29;20088;-66
2022/12/01 00:06:11;;;;;;;53.15;28.38;;;;;;;10.78;60.42;102572.50;4916649;29;20096;-65
2022/12/01 00:08:37;;;;;;;54.25;27.65;;;;;;;10.76;60.37;102579.75;4917400;29;20071;-66
2022/12/01 00:11:09;;;;;;;52.03;27.02;;;;;;;10.75;60.64;102572.63;4916864;29;20059;-65
2022/12/01 00:13:36;;;;;;;53.00;27.65;;;;;;;10.73;60.70;102577.19;4916920;29;20036;-65
2022/12/01 00:16:14;;;;;;;47.42;25.88;;;;;;;10.70;60.58;102582.72;4916468;29;20044;-65
2022/12/01 00:18:40;;;;;;;49.45;26.88;;;;;;;10.68;60.53;102576.53;4916967;29;20048;-65
2022/12/01 00:21:15;;;;;;;48.15;25.92;;;;;;;10.67;60.47;102582.84;4917395;29;20537;-66
2022/12/01 00:23:46;;;;;;;49.80;26.95;;;;;;;10.66;60.67;102573.03;4924202;29;20048;-65
2022/12/01 00:26:14;;;;;;;48.85;26.60;;;;;;;10.66;60.55;102580.22;4939654;29;20491;-66
2022/12/01 00:28:41;;;;;;;56.78;27.58;;;;;;;10.63;60.71;102578.53;4936732;29;20048;-65
2022/12/01 00:31:10;;;;;;;48.90;26.13;;;;;;;10.60;60.75;102567.06;4920563;29;20052;-66
2022/12/01 00:33:37;;;;;;;47.95;27.13;;;;;;;10.61;60.58;102572.38;4920337;29;20403;-65
2022/12/01 00:36:04;;;;;;;53.72;27.48;;;;;;;10.60;60.37;102567.94;4920639;29;20048;-65
2022/12/01 00:38:31;;;;;;;53.15;27.13;;;;;;;10.59;60.43;102563.50;4920744;29;20044;-66
2022/12/01 00:40:58;;;;;;;50.50;26.85;;;;;;;10.58;60.57;102564.44;4920804;29;20080;-65
2022/12/01 00:43:24;;;;;;;50.05;26.92;;;;;;;10.59;60.93;102568.88;4920366;29;20067;-64
2022/12/01 00:45:51;;;;;;;51.95;25.92;;;;;;;10.61;60.83;102571.50;4926379;29;20063;-65
2022/12/01 00:48:19;;;;;;;51.17;26.02;;;;;;;10.62;60.67;102574.09;4922364;29;20047;-65
2022/12/01 00:50:46;;;;;;;47.92;26.27;;;;;;;10.64;60.96;102571.34;4939115;29;20087;-66
2022/12/01 00:53:13;;;;;;;48.80;26.92;;;;;;;10.64;60.96;102574.91;4939226;29;20044;-66
2022/12/01 00:55:39;;;;;;;46.72;25.63;;;;;;;10.66;60.92;102569.47;4939283;29;20067;-65
2022/12/01 00:58:06;;;;;;;53.58;27.48;;;;;;;10.64;60.63;102571.34;4939064;29;20048;-66
2022/12/01 01:00:33;;;;;;;53.20;28.42;;;;;;;10.64;60.61;102569.53;4939073;29;20048;-65
2022/12/01 01:03:00;;;;;;;56.08;28.38;;;;;;;10.61;60.88;102574.19;4933552;29;20055;-65
2022/12/01 01:05:27;;;;;;;56.22;29.02;;;;;;;10.58;60.81;102567.13;4921845;29;20102;-65
2022/12/01 01:07:53;;;;;;;58.92;29.00;;;;;;;10.57;60.79;102576.13;4938896;29;20075;-65
2022/12/01 01:10:21;;;;;;;52.00;27.60;;;;;;;10.58;60.72;102577.88;4938951;29;20080;-65
2022/12/01 01:12:50;;;;;;;51.90;28.45;;;;;;;10.59;60.76;102581.44;4938765;29;20047;-66
2022/12/01 01:15:17;;;;;;;57.45;28.90;;;;;;;10.60;60.89;102580.50;4938890;29;20048;-65
2022/12/01 01:17:43;;;;;;;53.30;28.70;;;;;;;10.57;61.01;102584.19;4938758;29;20577;-65
2022/12/01 01:20:10;;;;;;;58.55;30.50;;;;;;;10.55;60.73;102586.06;4934404;29;20063;-66
2022/12/01 01:22:37;;;;;;;59.35;29.52;;;;;;;10.54;60.88;102581.63;4938810;29;20458;-65
2022/12/01 01:25:03;;;;;;;56.40;29.27;;;;;;;10.55;60.81;102582.50;4938515;29;20052;-66
2022/12/01 01:27:30;;;;;;;54.08;29.02;;;;;;;10.55;60.96;102593.25;4938713;29;20514;-65
2022/12/01 01:29:56;;;;;;;62.42;29.98;;;;;;;10.53;60.94;102589.75;4938407;29;20048;-66
2022/12/01 01:32:23;;;;;;;65.82;30.83;;;;;;;10.51;60.84;102587.13;4937908;29;20589;-65
2022/12/01 01:34:49;;;;;;;58.17;30.25;;;;;;;10.48;60.85;102595.31;4937703;29;20052;-66
2022/12/01 01:37:16;;;;;;;60.80;29.88;;;;;;;10.47;61.12;102597.13;4937230;29;20052;-66
2022/12/01 01:39:42;;;;;;;62.53;30.08;;;;;;;10.47;61.02;102589.09;4938529;29;20048;-66
2022/12/01 01:42:12;;;;;;;62.88;30.85;;;;;;;10.48;61.30;102603.38;4938265;29;20052;-65
2022/12/01 01:44:48;;;;;;;68.78;32.03;;;;;;;10.49;60.96;102599.75;4935614;29;20044;-65
2022/12/01 01:47:16;;;;;;;;;;;;;;;10.52;61.21;102598.75;4919722;29;20048;-65
2022/12/01 01:49:43;;;;;;;64.63;31.17;;;;;;;10.56;61.04;102595.88;4919614;29;19923;-65
2022/12/01 01:52:09;;;;;;;59.13;30.02;;;;;;;10.56;61.21;102597.69;4923307;29;20103;-65
2022/12/01 01:54:41;;;;;;;66.57;30.67;;;;;;;10.54;60.88;102604.94;4938330;29;20048;-65
2022/12/01 01:57:10;;;;;;;64.40;30.40;;;;;;;10.52;61.13;102602.31;4938098;29;20057;-65
2022/12/01 01:59:46;;;;;;;61.15;30.23;;;;;;;10.52;61.36;102599.63;4937959;29;20047;-65
2022/12/01 02:02:13;;;;;;;60.78;30.50;;;;;;;10.53;61.25;102601.38;4920786;29;20052;-65
2022/12/01 02:04:55;;;;;;;62.80;30.73;;;;;;;10.52;61.17;102602.31;4938475;29;20044;-65
2022/12/01 02:07:22;;;;;;;62.50;30.80;;;;;;;10.53;61.11;102600.50;4938051;29;20052;-65
2022/12/01 02:09:49;;;;;;;68.13;31.45;;;;;;;10.53;61.42;102601.38;4923799;29;20415;-65
2022/12/01 02:12:21;;;;;;;59.75;29.55;;;;;;;10.54;61.38;102594.19;4918977;29;20048;-65
2022/12/01 02:15:06;;;;;;;61.33;30.20;;;;;;;10.54;61.24;102596.88;4918908;29;20487;-65
2022/12/01 02:17:40;;;;;;;56.33;29.42;;;;;;;10.54;61.11;102602.25;4919107;29;20440;-65
2022/12/01 02:20:49;;;;;;;65.23;29.97;;;;;;;10.54;61.24;102591.50;4932920;29;20107;-66
2022/12/01 02:23:27;;;;;;;57.97;29.08;;;;;;;10.54;61.20;102599.56;4937446;29;20782;-65
2022/12/01 02:26:23;;;;;;;57.60;29.02;;;;;;;10.52;61.53;102598.75;4914428;29;20044;-65
2022/12/01 02:29:16;;;;;;;53.85;28.30;;;;;;;10.53;61.21;102606.75;4919790;29;20052;-66
2022/12/01 02:31:56;;;;;;;54.72;29.67;;;;;;;10.55;61.42;102595.94;4937361;29;20099;-65
2022/12/01 02:34:51;;;;;;;55.58;28.08;;;;;;;10.55;61.49;102601.31;4937281;29;20047;-65
2022/12/01 02:37:35;;;;;;;52.72;27.20;;;;;;;10.57;61.43;102599.44;4854001;29;20054;-65
2022/12/01 02:40:30;;;;;;;58.80;27.73;;;;;;;10.57;61.36;102592.25;4937512;29;20494;-65
2022/12/01 02:43:04;;;;;;;52.30;27.90;;;;;;;10.61;61.29;102598.34;4928432;29;20055;-64
2022/12/01 02:45:44;;;;;;;52.70;27.33;;;;;;;10.59;61.32;102595.75;4926425;29;20055;-65
2022/12/01 02:48:19;;;;;;;57.65;28.30;;;;;;;10.59;61.51;102594.88;4936907;29;20052;-65
2022/12/01 02:50:47;;;;;;;53.58;27.60;;;;;;;10.60;61.34;102596.59;4937202;29;20108;-65
2022/12/01 02:53:17;;;;;;;58.35;29.08;;;;;;;10.60;61.18;102602.84;4937097;29;20054;-66
2022/12/01 02:55:55;;;;;;;55.78;28.17;;;;;;;10.59;61.17;102601.09;4936926;29;20044;-65
2022/12/01 02:58:21;;;;;;;57.78;29.20;;;;;;;10.60;61.45;102605.53;4934675;29;20044;-65
2022/12/01 03:01:03;;;;;;;56.80;28.02;;;;;;;10.61;61.49;102614.47;4937006;29;20450;-65
2022/12/01 03:03:46;;;;;;;51.10;27.85;;;;;;;10.60;61.26;102602.84;4935392;29;20103;-64
2022/12/01 03:06:36;;;;;;;57.67;28.95;;;;;;;10.60;61.64;102613.59;4898928;29;20045;-66
2022/12/01 03:09:36;;;;;;;59.22;29.48;;;;;;;10.60;61.50;102610.03;4899194;29;20052;-65
2022/12/01 03:12:18;;;;;;;54.03;27.77;;;;;;;10.58;61.38;102601.19;4913668;29;20040;-65
2022/12/01 03:15:04;;;;;;;51.05;28.00;;;;;;;10.57;61.35;102610.16;4936540;29;20051;-65
2022/12/01 03:17:37;;;;;;;48.85;26.33;;;;;;;10.53;61.31;102612.13;4936716;29;20055;-65
2022/12/01 03:20:18;;;;;;;51.33;27.50;;;;;;;10.50;61.36;102612.25;4936590;29;20054;-66
2022/12/01 03:22:58;;;;;;;52.47;28.52;;;;;;;10.48;61.40;102609.63;4936382;29;20443;-65
2022/12/01 03:25:27;;;;;;;49.70;28.48;;;;;;;10.49;61.60;102610.50;4936889;29;20051;-66
2022/12/01 03:27:56;;;;;;;49.45;27.88;;;;;;;10.46;61.31;102606.13;4934544;29;20072;-65
2022/12/01 03:30:45;;;;;;;49.58;26.67;;;;;;;10.44;61.45;102608.00;4898444;29;20040;-65
2022/12/01 03:33:26;;;;;;;49.08;27.38;;;;;;;10.42;61.38;102600.97;4916901;29;20044;-65
2022/12/01 03:35:54;;;;;;;47.60;26.38;;;;;;;10.41;61.69;102596.53;4923987;29;20052;-65
2022/12/01 03:38:25;;;;;;;49.60;27.70;;;;;;;10.41;61.60;102601.91;4918306;29;20520;-65
2022/12/01 03:40:56;;;;;;;50.97;26.98;;;;;;;10.43;61.72;102602.72;4917534;29;20413;-66
2022/12/01 03:43:28;;;;;;;45.03;25.65;;;;;;;10.43;61.42;102603.59;4917311;29;20487;-65
2022/12/01 03:46:21;;;;;;;47.50;26.50;;;;;;;10.43;61.62;102600.03;4889039;29;20100;-66
2022/12/01 03:48:48;;;;;;;44.38;25.88;;;;;;;10.43;61.53;102600.03;4898187;29;20048;-65
2022/12/01 03:51:23;;;;;;;47.88;26.77;;;;;;;10.42;61.71;102603.66;4898148;29;20040;-66
2022/12/01 03:54:06;;;;;;;49.30;26.67;;;;;;;10.43;61.68;102611.63;4898047;29;20044;-65
2022/12/01 03:56:38;;;;;;;52.88;26.85;;;;;;;10.46;61.79;102607.94;4898673;29;20384;-66
2022/12/01 03:59:08;;;;;;;46.30;25.85;;;;;;;10.48;61.51;102600.69;4898252;29;20432;-66
2022/12/01 04:01:35;;;;;;;47.08;26.35;;;;;;;10.50;61.71;102604.19;4903658;29;20051;-66
2022/12/01 04:04:06;;;;;;;48.40;27.13;;;;;;;10.49;61.63;102605.13;4916856;29;20545;-66
2022/12/01 04:06:33;;;;;;;48.97;25.92;;;;;;;10.51;61.43;102603.25;4917057;29;20052;-66
2022/12/01 04:09:00;;;;;;;46.58;25.63;;;;;;;10.50;61.40;102612.25;4916927;29;20080;-64
2022/12/01 04:14:12;;;;;;;;;;;;;;;10.50;61.43;102618.50;4917392;29;20407;-66
2022/12/01 04:16:39;;;;;;;46.88;24.35;;;;;;;10.54;61.54;102616.56;4917169;29;19923;-66
2022/12/01 04:19:05;;;;;;;45.65;25.25;;;;;;;10.51;61.58;102614.00;4918433;29;20444;-66
2022/12/01 04:21:32;;;;;;;48.33;26.00;;;;;;;10.49;61.39;102616.75;4899883;29;20052;-65
2022/12/01 04:24:01;;;;;;;41.33;25.20;;;;;;;10.48;61.38;102615.00;4916766;29;20043;-66
2022/12/01 04:26:31;;;;;;;41.95;24.08;;;;;;;10.48;61.33;102614.13;4917477;29;20044;-66
2022/12/01 04:29:03;;;;;;;43.60;24.70;;;;;;;10.47;61.69;102610.56;4916784;29;20048;-65
2022/12/01 04:31:30;;;;;;;44.20;25.65;;;;;;;10.48;61.60;102611.44;4916624;29;20044;-65
2022/12/01 04:33:58;;;;;;;43.85;24.58;;;;;;;10.49;61.64;102610.50;4916535;29;20448;-66
2022/12/01 04:36:25;;;;;;;39.55;24.88;;;;;;;10.50;61.71;102612.25;4935845;29;20066;-66
2022/12/01 04:38:52;;;;;;;40.25;23.67;;;;;;;10.50;61.41;102612.25;4921562;29;20048;-66
2022/12/01 04:41:18;;;;;;;41.67;22.40;;;;;;;10.53;61.39;102605.88;4916664;29;20055;-66
2022/12/01 04:43:45;;;;;;;39.83;23.55;;;;;;;10.53;61.31;102604.06;4916451;29;20570;-65
2022/12/01 04:46:13;;;;;;;43.10;24.15;;;;;;;10.56;61.31;102609.31;4930556;29;20466;-65
2022/12/01 04:48:39;;;;;;;40.13;22.33;;;;;;;10.56;61.48;102601.25;4935536;29;20051;-65
2022/12/01 04:51:07;;;;;;;40.83;23.58;;;;;;;10.58;61.23;102607.41;4928703;29;20044;-66
2022/12/01 04:53:35;;;;;;;38.75;22.65;;;;;;;10.57;61.47;102608.38;4916415;29;20048;-65
2022/12/01 04:56:02;;;;;;;42.42;23.58;;;;;;;10.55;61.43;102607.56;4916460;29;20402;-65
2022/12/01 04:58:30;;;;;;;40.72;23.67;;;;;;;10.53;61.23;102613.94;4928181;29;20107;-66
2022/12/01 05:01:05;;;;;;;42.38;23.20;;;;;;;10.50;61.34;102617.63;4935615;29;20468;-66
2022/12/01 05:03:36;;;;;;;38.60;22.90;;;;;;;10.49;61.42;102608.69;4935564;29;20040;-65
2022/12/01 05:06:09;;;;;;;37.17;21.30;;;;;;;10.49;61.16;102614.06;4935559;29;20143;-66
2022/12/01 05:08:36;;;;;;;36.30;21.77;;;;;;;10.48;61.11;102617.69;4927872;29;20558;-66
2022/12/01 05:11:06;;;;;;;39.13;21.92;;;;;;;10.48;61.34;102622.19;4919802;29;20100;-66
2022/12/01 05:13:35;;;;;;;38.08;22.27;;;;;;;10.45;61.08;102619.63;4919979;29;20044;-66
2022/12/01 05:16:07;;;;;;;41.50;22.83;;;;;;;10.45;61.35;102614.25;4919881;29;20535;-66
2022/12/01 05:18:34;;;;;;;36.20;21.45;;;;;;;10.44;61.12;102613.38;4919336;29;20546;-66
2022/12/01 05:21:02;;;;;;;38.33;21.92;;;;;;;10.45;61.40;102611.56;4919906;29;20044;-66
2022/12/01 05:23:31;;;;;;;35.97;21.33;;;;;;;10.44;61.19;102617.88;4919437;29;20044;-66
2022/12/01 05:25:58;;;;;;;40.33;21.65;;;;;;;10.42;61.40;102614.38;4901079;29;20048;-66
2022/12/01 05:28:26;;;;;;;38.33;22.33;;;;;;;10.40;61.37;102619.81;4929603;29;20392;-66
2022/12/01 05:30:53;;;;;;;39.03;22.40;;;;;;;10.37;61.27;102611.00;4919798;29;20103;-66
2022/12/01 05:33:24;;;;;;;37.33;22.75;;;;;;;10.34;61.29;102606.63;4919359;29;20063;-66
2022/12/01 05:35:50;;;;;;;40.42;22.83;;;;;;;10.35;61.31;102616.44;4919559;29;20182;-66
2022/12/01 05:38:17;;;;;;;38.22;21.88;;;;;;;10.33;61.32;102622.81;4918950;29;20132;-66
2022/12/01 05:40:51;;;;;;;40.28;22.63;;;;;;;10.32;61.11;102618.38;4919880;29;20036;-66
2022/12/01 05:43:19;;;;;;;36.58;20.98;;;;;;;10.33;61.25;102622.81;4901744;29;20048;-66
2022/12/01 05:45:54;;;;;;;44.20;21.73;;;;;;;10.32;61.37;102621.06;4902133;29;20044;-67
2022/12/01 05:48:22;;;;;;;37.78;23.35;;;;;;;10.32;61.13;102621.06;4918923;29;20495;-66
2022/12/01 05:50:48;;;;;;;41.75;22.38;;;;;;;10.31;61.50;102625.56;4919160;29;20058;-66
2022/12/01 05:53:15;;;;;;;45.70;24.15;;;;;;;10.31;61.25;102628.22;4919092;29;20054;-66
2022/12/01 05:55:42;;;;;;;48.78;25.52;;;;;;;10.31;61.26;102633.59;4919131;29;20048;-66
2022/12/01 05:58:09;;;;;;;45.70;24.65;;;;;;;10.32;61.21;102629.97;4921968;29;20050;-66
2022/12/01 06:00:36;;;;;;;43.47;24.23;;;;;;;10.31;61.28;102625.56;4938096;29;20110;-65
2022/12/01 06:03:10;;;;;;;46.50;25.42;;;;;;;10.33;61.22;102626.34;4937859;29;20075;-66
2022/12/01 06:05:37;;;;;;;47.60;25.17;;;;;;;10.34;61.28;102633.47;4937852;29;20483;-66
2022/12/01 06:08:04;;;;;;;47.65;25.27;;;;;;;10.35;61.19;102635.22;4937378;29;20044;-66
2022/12/01 06:10:30;;;;;;;46.33;25.63;;;;;;;10.35;61.44;102634.34;4937851;29;20066;-66
2022/12/01 06:12:57;;;;;;;52.58;26.83;;;;;;;10.35;61.22;102637.91;4937783;29;20051;-66
2022/12/01 06:15:23;;;;;;;46.58;26.48;;;;;;;10.37;61.21;102637.84;4935057;29;20054;-66
2022/12/01 06:17:50;;;;;;;53.92;27.27;;;;;;;10.38;61.49;102642.28;4937662;29;20043;-67
2022/12/01 06:20:16;;;;;;;50.15;27.17;;;;;;;10.38;61.43;102642.28;4936939;29;20098;-65
2022/12/01 06:22:43;;;;;;;46.92;26.10;;;;;;;10.36;61.47;102638.78;4937316;29;20052;-65
2022/12/01 06:25:10;;;;;;;52.45;27.02;;;;;;;10.36;61.26;102636.97;4937539;29;20486;-65
2022/12/01 06:27:36;;;;;;;49.40;26.60;;;;;;;10.36;61.28;102630.72;4937548;29;20052;-66
2022/12/01 06:30:04;;;;;;;50.00;26.50;;;;;;;10.36;61.37;102636.09;4937718;29;20052;-66
2022/12/01 06:32:30;;;;;;;52.65;26.25;;;;;;;10.35;61.51;102637.91;4926467;29;20059;-66
2022/12/01 06:34:57;;;;;;;55.65;28.80;;;;;;;10.35;61.20;102637.03;4918309;29;20488;-66
2022/12/01 06:37:23;;;;;;;51.40;27.63;;;;;;;10.34;61.20;102628.09;4919408;29;20062;-66
2022/12/01 06:39:50;;;;;;;53.50;26.83;;;;;;;10.33;61.22;102634.41;4918375;29;20040;-65
2022/12/01 06:42:17;;;;;;;52.42;27.65;;;;;;;10.32;61.50;102629.09;4918102;29;20096;-66
2022/12/01 06:44:45;;;;;;;49.30;26.35;;;;;;;10.32;61.26;102638.03;4918092;29;20044;-66
2022/12/01 06:47:11;;;;;;;51.45;27.40;;;;;;;10.31;61.17;102643.47;4918235;29;20407;-66
2022/12/01 06:49:38;;;;;;;49.75;26.85;;;;;;;10.30;61.70;102637.22;4906508;29;20457;-66
2022/12/01 06:52:05;;;;;;;48.22;26.08;;;;;;;10.31;61.52;102638.09;4899109;29;20072;-66
2022/12/01 06:54:32;;;;;;;54.25;27.05;;;;;;;10.31;61.34;102649.72;4900544;29;20159;-65
2022/12/01 06:56:59;;;;;;;51.60;27.80;;;;;;;10.30;61.32;102647.09;4907281;29;20562;-66
2022/12/01 06:59:26;;;;;;;52.97;27.23;;;;;;;10.30;61.28;102657.84;4907265;29;20384;-66
2022/12/01 07:01:53;;;;;;;51.58;26.08;;;;;;;10.28;61.27;102655.22;4911128;29;20403;-66
2022/12/01 07:04:20;;;;;;;54.63;28.77;;;;;;;10.28;61.28;102660.59;4915027;29;20055;-65
2022/12/01 07:06:46;;;;;;;46.00;26.42;;;;;;;10.29;61.29;102665.03;4911021;29;20041;-65
2022/12/01 07:09:12;;;;;;;46.33;26.23;;;;;;;10.31;61.48;102668.50;4907753;29;20048;-66
2022/12/01 07:11:39;;;;;;;50.88;27.77;;;;;;;10.32;61.55;102670.25;4898733;29;20112;-66
2022/12/01 07:14:14;;;;;;;51.90;27.33;;;;;;;10.31;61.31;102662.28;4898794;29;20055;-65
2022/12/01 07:16:41;;;;;;;50.90;26.85;;;;;;;10.30;61.39;102673.94;4899043;29;20049;-66
2022/12/01 07:19:08;;;;;;;50.92;27.00;;;;;;;10.29;61.25;102673.06;4898932;29;20049;-65
2022/12/01 07:21:34;;;;;;;52.38;28.02;;;;;;;10.27;61.20;102669.59;4898453;29;20434;-65
2022/12/01 07:24:01;;;;;;;54.40;27.00;;;;;;;10.26;61.10;102673.19;4933924;29;20055;-65
2022/12/01 07:26:27;;;;;;;50.63;27.80;;;;;;;10.25;61.31;102682.19;4935707;29;20514;-66
2022/12/01 07:28:54;;;;;;;50.50;26.75;;;;;;;10.26;61.38;102678.56;4936490;29;20052;-65
2022/12/01 07:31:20;;;;;;;53.28;28.42;;;;;;;10.24;61.24;102672.38;4936110;29;20055;-65
2022/12/01 07:33:47;;;;;;;54.60;28.20;;;;;;;10.25;61.41;102673.25;4936193;29;20050;-65
2022/12/01 07:36:14;;;;;;;49.88;27.48;;;;;;;10.25;60.98;102678.63;4936550;29;20372;-66
2022/12/01 07:38:41;;;;;;;47.58;27.38;;;;;;;10.23;61.32;102676.00;4933968;29;20055;-65
2022/12/01 07:41:20;;;;;;;50.17;27.20;;;;;;;10.22;61.40;102676.06;4935128;29;20525;-66
2022/12/01 07:43:49;;;;;;;55.75;28.13;;;;;;;10.23;61.35;102672.44;4919090;29;20451;-66
2022/12/01 07:46:18;;;;;;;54.60;28.20;;;;;;;10.22;61.36;102676.94;4936211;29;20103;-65
2022/12/01 07:48:49;;;;;;;54.03;28.48;;;;;;;10.23;61.13;102678.69;4936096;29;20402;-66
2022/12/01 07:51:16;;;;;;;50.38;28.58;;;;;;;10.24;61.35;102674.19;4936237;29;20083;-65
2022/12/01 07:53:44;;;;;;;49.85;29.10;;;;;;;10.22;61.10;102681.44;4935839;29;20102;-66
2022/12/01 07:56:11;;;;;;;56.75;29.45;;;;;;;10.23;61.31;102680.50;4928552;29;20044;-66
2022/12/01 07:58:38;;;;;;;50.45;29.13;;;;;;;10.23;61.04;102673.31;4916947;29;20044;-66
2022/12/01 08:01:08;;;;;;;50.75;27.60;;;;;;;10.23;61.11;102680.50;4917129;29;20051;-65
2022/12/01 08:03:35;;;;;;;52.53;29.55;;;;;;;10.22;61.26;102682.31;4916927;29;20123;-65
2022/12/01 08:06:03;;;;;;;47.80;28.17;;;;;;;10.22;61.21;102681.44;4916938;29;20048;-65
2022/12/01 08:08:32;;;;;;;50.67;28.92;;;;;;;10.22;61.02;102681.44;4900147;29;20395;-65
2022/12/01 08:11:08;;;;;;;49.00;27.58;;;;;;;10.22;61.07;102681.44;4916997;29;20051;-66
2022/12/01 08:13:35;;;;;;;49.38;29.25;;;;;;;10.21;61.17;102685.06;4918915;29;20052;-66
2022/12/01 08:16:04;;;;;;;50.38;27.48;;;;;;;10.22;61.05;102681.44;4934877;29;20054;-66
2022/12/01 08:18:33;;;;;;;49.42;27.98;;;;;;;10.23;60.90;102689.44;4936042;29;20487;-65
2022/12/01 08:21:00;;;;;;;50.33;28.83;;;;;;;10.26;61.00;102689.31;4919290;29;20160;-65
2022/12/01 08:23:26;;;;;;;50.90;28.77;;;;;;;10.27;61.17;102691.06;4935832;29;20443;-66
2022/12/01 08:25:53;;;;;;;47.03;27.50;;;;;;;10.27;60.71;102693.75;4935960;29;20047;-66
2022/12/01 08:28:20;;;;;;;49.58;28.67;;;;;;;10.29;60.68;102693.69;4935865;29;20044;-66
2022/12/01 08:30:46;;;;;;;47.92;27.42;;;;;;;10.30;60.73;102695.44;4919166;29;20051;-67
2022/12/01 08:33:13;;;;;;;48.58;28.35;;;;;;;10.33;60.76;102701.56;4916353;29;20050;-66
2022/12/01 08:35:40;;;;;;;48.25;27.98;;;;;;;10.40;61.00;102705.78;4922440;29;20569;-65
2022/12/01 08:38:08;;;;;;;50.78;28.88;;;;;;;10.47;60.94;102709.97;4935457;29;20054;-67
2022/12/01 08:40:34;;;;;;;50.65;28.65;;;;;;;10.55;61.00;102711.44;4935385;29;20466;-67
2022/12/01 08:43:01;;;;;;;49.08;28.67;;;;;;;10.56;60.80;102708.69;4931165;29;20483;-68
2022/12/01 08:45:27;;;;;;;47.40;28.17;;;;;;;10.59;60.78;102708.56;4917659;29;20056;-65
2022/12/01 08:47:57;;;;;;;52.45;28.33;;;;;;;10.61;60.78;102717.44;4919998;29;20091;-67
2022/12/01 08:50:26;;;;;;;49.25;28.42;;;;;;;10.60;60.53;102710.31;4919702;29;20059;-68
2022/12/01 08:52:53;;;;;;;46.67;27.02;;;;;;;10.58;60.29;102712.19;4903205;29;20048;-67
2022/12/01 08:55:20;;;;;;;47.17;28.92;;;;;;;10.56;60.33;102711.38;4920196;29;20044;-68
2022/12/01 08:57:47;;;;;;;50.00;28.10;;;;;;;10.56;60.29;102708.69;4919333;29;20517;-67
2022/12/01 09:00:15;;;;;;;49.72;29.80;;;;;;;10.57;60.41;102707.75;4917542;29;20506;-68
2022/12/01 09:02:41;;;;;;;50.92;29.73;;;;;;;10.60;60.32;102713.00;4917674;29;20039;-68
2022/12/01 09:05:08;;;;;;;51.08;29.45;;;;;;;10.62;60.62;102707.56;4917891;29;20048;-68
2022/12/01 09:07:34;;;;;;;51.83;30.13;;;;;;;10.64;60.68;102705.69;4917941;29;20044;-67
2022/12/01 09:10:01;;;;;;;54.60;30.52;;;;;;;10.66;60.36;102707.38;4917474;29;20036;-68
2022/12/01 09:12:28;;;;;;;50.15;30.05;;;;;;;10.67;60.27;102698.38;4917583;29;20507;-67
2022/12/01 09:14:55;;;;;;;57.35;31.42;;;;;;;10.69;60.16;102707.25;4919418;29;20052;-67
2022/12/01 09:17:22;;;;;;;53.22;31.08;;;;;;;10.68;60.24;102705.50;4919184;29;20072;-67
2022/12/01 09:19:49;;;;;;;52.38;31.17;;;;;;;10.69;60.08;102703.69;4919304;29;20048;-67
2022/12/01 09:22:16;;;;;;;57.70;31.33;;;;;;;10.68;60.22;102713.56;4924356;29;20498;-66
2022/12/01 09:24:42;;;;;;;57.60;32.00;;;;;;;10.69;60.05;102718.00;4909789;29;20046;-66
2022/12/01 09:27:09;;;;;;;57.08;33.45;;;;;;;10.69;60.07;102715.31;4919363;29;20123;-66
2022/12/01 09:29:35;;;;;;;61.75;32.20;;;;;;;10.68;60.34;102718.06;4931660;29;20068;-65
2022/12/01 09:32:02;;;;;;;57.65;32.50;;;;;;;10.67;60.11;102716.31;4938155;29;20499;-66
2022/12/01 09:34:32;;;;;;;61.40;32.15;;;;;;;10.66;59.87;102719.94;4938376;29;20059;-66
2022/12/01 09:36:59;;;;;;;60.30;32.80;;;;;;;10.65;59.96;102712.81;4938203;29;20047;-65
2022/12/01 09:39:25;;;;;;;64.45;32.40;;;;;;;10.66;59.84;102719.94;4938310;29;20098;-67
2022/12/01 09:42:15;;;;;;;60.10;33.72;;;;;;;10.65;59.89;102723.56;4920406;29;20052;-66
2022/12/01 09:44:50;;;;;;;56.88;32.22;;;;;;;10.64;59.91;102717.31;4917050;29;20044;-65
2022/12/01 09:47:35;;;;;;;58.28;32.33;;;;;;;10.63;59.85;102720.94;4919102;29;20111;-66
2022/12/01 09:50:17;;;;;;;58.78;32.38;;;;;;;10.61;59.92;102720.13;4918886;29;20451;-66
2022/12/01 09:52:50;;;;;;;59.28;33.33;;;;;;;10.61;60.02;102717.44;4901780;29;20044;-66
2022/12/01 09:55:19;;;;;;;56.92;31.23;;;;;;;10.61;59.84;102717.44;4919042;29;20115;-66
2022/12/01 09:57:48;;;;;;;56.88;32.90;;;;;;;10.62;59.82;102721.88;4918990;29;20058;-65
2022/12/01 10:00:19;;;;;;;57.58;32.10;;;;;;;10.64;59.95;102714.63;4918918;29;20044;-65
2022/12/01 10:03:04;;;;;;;64.00;32.70;;;;;;;10.66;60.11;102707.38;4918494;29;20072;-67
2022/12/01 10:05:54;;;;;;;56.28;31.88;;;;;;;10.70;59.86;102714.38;4918164;29;20048;-66
2022/12/01 10:08:54;;;;;;;60.22;32.80;;;;;;;10.75;60.04;102707.00;4910147;29;20127;-66
2022/12/01 10:11:32;;;;;;;57.28;33.85;;;;;;;10.75;59.75;102704.31;4918832;29;20058;-66
2022/12/01 10:13:59;;;;;;;58.25;32.03;;;;;;;10.74;59.88;102702.56;4901648;29;20052;-66
2022/12/01 10:16:34;;;;;;;58.60;32.17;;;;;;;10.73;59.88;102699.94;4918837;29;20040;-64
2022/12/01 10:19:07;;;;;;;59.85;31.60;;;;;;;10.74;59.89;102707.06;4922179;29;20121;-66
2022/12/01 10:21:55;;;;;;;57.03;32.05;;;;;;;10.77;59.89;102704.25;4921670;29;20044;-66
2022/12/01 10:24:59;;;;;;;55.63;32.28;;;;;;;10.80;59.89;102706.81;4918458;29;20055;-66
2022/12/01 10:27:41;;;;;;;53.00;30.52;;;;;;;10.84;60.10;102692.28;4918833;29;20092;-66
2022/12/01 10:30:14;;;;;;;59.58;31.98;;;;;;;10.87;59.89;102693.97;4918330;29;20044;-65
2022/12/01 10:32:51;;;;;;;53.70;30.15;;;;;;;10.89;59.98;102690.28;4925196;29;20044;-66
2022/12/01 10:35:26;;;;;;;53.15;30.63;;;;;;;10.92;59.84;102690.16;4918488;29;20053;-66
2022/12/01 10:37:59;;;;;;;59.28;32.33;;;;;;;10.95;60.14;102691.81;4882357;29;20392;-65
2022/12/01 10:40:26;;;;;;;53.47;29.40;;;;;;;10.98;59.92;102689.88;4917569;29;20048;-66
2022/12/01 10:42:54;;;;;;;55.95;31.63;;;;;;;11.00;60.06;102687.13;4918168;29;20040;-66
2022/12/01 10:45:24;;;;;;;57.17;31.40;;;;;;;11.01;59.94;102688.88;4934662;29;20093;-66
2022/12/01 10:48:14;;;;;;;57.22;31.55;;;;;;;11.01;59.95;102679.00;4937046;29;20115;-65
2022/12/01 10:50:43;;;;;;;56.95;30.90;;;;;;;11.05;59.91;102680.59;4931972;29;20495;-65
2022/12/01 10:53:22;;;;;;;53.50;31.45;;;;;;;11.05;60.09;102690.50;4917957;29;20100;-65
2022/12/01 10:55:57;;;;;;;50.88;28.52;;;;;;;11.06;60.01;102681.47;4918152;29;20052;-66
2022/12/01 10:58:24;;;;;;;49.95;28.65;;;;;;;11.08;60.06;102676.91;4917767;29;20043;-66
2022/12/01 11:00:56;;;;;;;46.88;27.30;;;;;;;11.10;59.88;102673.22;4917747;29;20052;-66
2022/12/01 11:03:30;;;;;;;53.38;27.80;;;;;;;11.14;59.85;102671.25;4901292;29;20072;-67
2022/12/01 11:06:01;;;;;;;51.33;30.20;;;;;;;11.13;59.80;102669.50;4917304;29;20052;-66
2022/12/01 11:08:44;;;;;;;48.88;26.88;;;;;;;11.16;59.91;102672.09;4917493;29;20044;-66
2022/12/01 11:11:39;;;;;;;48.88;28.23;;;;;;;11.17;59.83;102671.16;4916990;29;20139;-66
2022/12/01 11:14:22;;;;;;;46.28;27.10;;;;;;;11.21;59.73;102671.88;4910495;29;20570;-67
2022/12/01 11:16:52;;;;;;;48.20;28.02;;;;;;;11.22;59.50;102669.13;4917698;29;20091;-66
2022/12/01 11:19:25;;;;;;;52.78;29.95;;;;;;;11.24;59.69;102669.94;4917467;29;20040;-66
2022/12/01 11:21:56;;;;;;;50.80;29.75;;;;;;;11.25;59.76;102660.06;4916706;29;20139;-66
2022/12/01 11:24:57;;;;;;;51.47;29.98;;;;;;;11.27;59.31;102663.53;4900340;29;20103;-66
2022/12/01 11:27:30;;;;;;;53.63;28.85;;;;;;;11.33;59.51;102665.97;4886059;29;20067;-66
2022/12/01 11:30:05;;;;;;;49.38;27.83;;;;;;;11.34;59.59;102665.00;4917128;29;20044;-67